Terminal Aerodrome Forecast
Issued by NWS

Home | Current Version | Previous Version | Text Only | Print | Product List | Glossary Off
Versions: 1 2 3 4 5 6 7 8 9 10 11 12 13 14 15 16 17 18 19 20 21 22 23 24 25 26 27 28 29

000
FTUS45 KGGW 010500
TAFGDV
TAF
KGDV 010520Z 0106/0206 30014KT 6SM BR VCSH SCT025 OVC040
     FM010900 30014KT 6SM BR OVC035
     FM011200 29017G25KT P6SM SCT045
      AMD LTD TO CLD VIS AND WIND=

USA.gov is the U.S. government's official web portal to all federal, state and local government web resources and services.